createdAt,value
2022-12-04T00:00:45.906Z,101512.88
2022-12-04T00:03:18.561Z,101507.75
2022-12-04T00:05:51.133Z,101505.22
2022-12-04T00:08:23.784Z,101499.16
2022-12-04T00:10:56.282Z,101498.22
2022-12-04T00:13:28.849Z,101504.69
2022-12-04T00:16:04.849Z,101497.63
2022-12-04T00:18:38.051Z,101497.41
2022-12-04T00:21:13.372Z,101491.25
2022-12-04T00:23:46.789Z,101492.94
2022-12-04T00:26:23.799Z,101492.41
2022-12-04T00:28:56.662Z,101492.41
2022-12-04T00:31:31.384Z,101493.22
2022-12-04T00:34:07.967Z,101490.72
2022-12-04T00:36:40.962Z,101494.13
2022-12-04T00:39:13.415Z,101494.72
2022-12-04T00:41:45.890Z,101492.75
2022-12-04T00:44:18.394Z,101491.84
2022-12-04T00:46:50.928Z,101488.56
2022-12-04T00:49:23.518Z,101481.66
2022-12-04T00:51:56.274Z,101489.25
2022-12-04T00:54:28.861Z,101490.63
2022-12-04T00:57:01.417Z,101482.25
2022-12-04T00:59:33.992Z,101483.97
2022-12-04T01:02:06.627Z,101484.94
2022-12-04T01:04:39.136Z,101485.13
2022-12-04T01:07:11.608Z,101496.19
2022-12-04T01:09:44.070Z,101495.38
2022-12-04T01:12:20.696Z,101492.75
2022-12-04T01:14:53.695Z,101500.47
2022-12-04T01:17:26.968Z,101491.13
2022-12-04T01:19:59.496Z,101500.91
2022-12-04T01:22:32.016Z,101501.66
2022-12-04T01:25:05.254Z,101507.41
2022-12-04T01:27:37.835Z,101501.91
2022-12-04T01:30:11.140Z,101503.91
2022-12-04T01:32:43.674Z,101500.84
2022-12-04T01:35:16.297Z,101508.03
2022-12-04T01:37:48.834Z,101500.22
2022-12-04T01:40:21.486Z,101504.13
2022-12-04T01:42:54.025Z,101501.06
2022-12-04T01:45:44.346Z,101494.31
2022-12-04T01:48:27.403Z,101496.75
2022-12-04T01:51:19.021Z,101496.19
2022-12-04T01:54:10.452Z,101493.69
2022-12-04T01:56:50.964Z,101485.75
2022-12-04T01:59:31.937Z,101476.16
2022-12-04T02:02:14.541Z,101484.34
2022-12-04T02:04:48.906Z,101481.47
2022-12-04T02:07:21.409Z,101475.31
2022-12-04T02:09:56.260Z,101485.84
2022-12-04T02:12:53.568Z,101479.81
2022-12-04T02:15:46.002Z,101479.97
2022-12-04T02:18:58.753Z,101473.72
2022-12-04T02:21:43.177Z,101474.69
2022-12-04T02:24:33.028Z,101476.44
2022-12-04T02:27:16.828Z,101477.91
2022-12-04T02:30:06.461Z,101478.41
2022-12-04T02:32:48.436Z,101479.41
2022-12-04T02:35:40.766Z,101475.41
2022-12-04T02:39:05.110Z,101486.78
2022-12-04T02:42:13.492Z,101471.94
2022-12-04T02:44:57.327Z,101470.75
2022-12-04T02:47:32.184Z,101473.03
2022-12-04T02:50:12.897Z,101479.72
2022-12-04T02:53:01.546Z,101473.84
2022-12-04T02:55:43.629Z,101468.50
2022-12-04T02:58:25.027Z,101466.34
2022-12-04T03:01:02.590Z,101468.53
2022-12-04T03:03:35.528Z,101458.91
2022-12-04T03:06:13.959Z,101462.25
2022-12-04T03:09:00.572Z,101467.88
2022-12-04T03:11:37.617Z,101464.97
2022-12-04T03:14:35.402Z,101459.13
2022-12-04T03:17:25.294Z,101465.19
2022-12-04T03:20:05.627Z,101467.69
2022-12-04T03:22:44.069Z,101464.97
2022-12-04T03:25:16.755Z,101471.13
2022-12-04T03:28:10.925Z,101466.25
2022-12-04T03:30:58.562Z,101464.06
2022-12-04T03:33:45.024Z,101456.31
2022-12-04T03:36:27.897Z,101458.69
2022-12-04T03:39:22.894Z,101455.50
2022-12-04T03:42:25.649Z,101456.59
2022-12-04T03:45:22.321Z,101451.63
2022-12-04T03:48:07.868Z,101452.22
2022-12-04T03:50:51.988Z,101453.69
2022-12-04T03:53:42.911Z,101449.59
2022-12-04T03:56:28.384Z,101449.25
2022-12-04T03:59:12.490Z,101455.50
2022-12-04T04:01:49.614Z,101448.59
2022-12-04T04:04:31.138Z,101449.66
2022-12-04T04:07:15.844Z,101449.84
2022-12-04T04:09:56.441Z,101452.19
2022-12-04T04:12:38.620Z,101447.56
2022-12-04T04:15:36.989Z,101447.91
2022-12-04T04:18:28.294Z,101449.78
2022-12-04T04:21:20.589Z,101451.41
2022-12-04T04:24:11.863Z,101455.34
2022-12-04T04:26:49.917Z,101454.78
2022-12-04T04:29:22.467Z,101451.41
2022-12-04T04:32:08.448Z,101449.41
2022-12-04T04:34:54.137Z,101441.28
2022-12-04T04:37:46.457Z,101446.31
2022-12-04T04:40:30.480Z,101445.13
2022-12-04T04:43:13.871Z,101442.31
2022-12-04T04:45:52.352Z,101444.66
2022-12-04T04:48:49.235Z,101451.63
2022-12-04T04:51:22.520Z,101451.81
2022-12-04T04:54:00.182Z,101455.63
2022-12-04T04:56:39.170Z,101456.63
2022-12-04T04:59:12.487Z,101445.97
2022-12-04T05:01:47.063Z,101461.63
2022-12-04T05:04:19.766Z,101464.41
2022-12-04T05:06:52.252Z,101458.28
2022-12-04T05:09:24.783Z,101454.72
2022-12-04T05:11:57.272Z,101456.50
2022-12-04T05:14:29.709Z,101456.59
2022-12-04T05:17:10.840Z,101453.50
2022-12-04T05:19:54.850Z,101452.88
2022-12-04T05:22:33.044Z,101453.03
2022-12-04T05:25:05.990Z,101458.16
2022-12-04T05:27:38.591Z,101452.88
2022-12-04T05:30:12.048Z,101458.28
2022-12-04T05:32:44.587Z,101449.41
2022-12-04T05:35:17.508Z,101462.69
2022-12-04T05:37:50.095Z,101454.44
2022-12-04T05:40:22.796Z,101447.75
2022-12-04T05:42:55.240Z,101447.97
2022-12-04T05:45:27.795Z,101447.09
2022-12-04T05:48:00.388Z,101443.06
2022-12-04T05:50:32.908Z,101444.19
2022-12-04T05:53:05.473Z,101443.53
2022-12-04T05:55:38.163Z,101440.28
2022-12-04T05:58:10.950Z,101440.44
2022-12-04T06:00:43.437Z,101434.41
2022-12-04T06:03:16.289Z,101438.41
2022-12-04T06:05:48.931Z,101434.31
2022-12-04T06:08:21.628Z,101423.59
2022-12-04T06:10:54.295Z,101431.63
2022-12-04T06:13:26.827Z,101434.72
2022-12-04T06:15:59.400Z,101420.81
2022-12-04T06:18:31.972Z,101426.97
2022-12-04T06:21:04.616Z,101436.56
2022-12-04T06:23:37.348Z,101434.31
2022-12-04T06:26:10.019Z,101439.53
2022-12-04T06:28:42.647Z,101435.84
2022-12-04T06:31:19.094Z,101434.97
2022-12-04T06:33:55.099Z,101442.69
2022-12-04T06:36:27.858Z,101441.91
2022-12-04T06:39:00.470Z,101432.28
2022-12-04T06:41:33.237Z,101442.53
2022-12-04T06:44:05.806Z,101442.97
2022-12-04T06:46:43.536Z,101445.66
2022-12-04T06:49:22.655Z,101445.19
2022-12-04T06:51:55.191Z,101437.56
2022-12-04T06:54:27.719Z,101442.63
2022-12-04T06:57:00.306Z,101451.25
2022-12-04T06:59:33.858Z,101452.00
2022-12-04T07:02:06.767Z,101456.97
2022-12-04T07:04:39.392Z,101460.41
2022-12-04T07:07:12.219Z,101452.13
2022-12-04T07:09:46.833Z,101448.78
2022-12-04T07:12:19.350Z,101459.69
2022-12-04T07:14:52.036Z,101462.81
2022-12-04T07:17:24.633Z,101461.09
2022-12-04T07:19:57.450Z,101457.53
2022-12-04T07:22:30.228Z,101465.66
2022-12-04T07:25:03.072Z,101467.66
2022-12-04T07:27:35.584Z,101481.19
2022-12-04T07:30:15.385Z,101474.09
2022-12-04T07:32:48.301Z,101477.66
2022-12-04T07:35:20.856Z,101475.22
2022-12-04T07:37:53.369Z,101472.38
2022-12-04T07:40:26.053Z,101471.66
2022-12-04T07:42:58.732Z,101470.97
2022-12-04T07:45:31.265Z,101470.09
2022-12-04T07:48:04.104Z,101477.94
2022-12-04T07:50:36.635Z,101478.94
2022-12-04T07:53:09.416Z,101480.63
2022-12-04T07:55:42.531Z,101484.94
2022-12-04T07:58:15.050Z,101479.72
2022-12-04T08:00:47.535Z,101483.78
2022-12-04T08:03:20.165Z,101482.03
2022-12-04T08:05:52.913Z,101487.66
2022-12-04T08:08:25.352Z,101482.06
2022-12-04T08:10:59.166Z,101497.72
2022-12-04T08:13:31.638Z,101493.88
2022-12-04T08:16:08.169Z,101490.09
2022-12-04T08:18:41.556Z,101499.19
2022-12-04T08:21:20.801Z,101495.25
2022-12-04T08:23:56.964Z,101500.84
2022-12-04T08:26:31.369Z,101505.06
2022-12-04T08:29:05.004Z,101501.88
2022-12-04T08:31:37.632Z,101503.97
2022-12-04T08:34:10.348Z,101499.72
2022-12-04T08:36:42.929Z,101498.91
2022-12-04T08:39:15.468Z,101491.19
2022-12-04T08:41:52.369Z,101485.00
2022-12-04T08:44:27.893Z,101494.63
2022-12-04T08:47:00.449Z,101491.16
2022-12-04T08:49:33.110Z,101483.56
2022-12-04T08:52:05.664Z,101483.97
2022-12-04T08:54:38.242Z,101488.38
2022-12-04T08:57:10.716Z,101478.34
2022-12-04T08:59:43.164Z,101480.75
2022-12-04T09:02:16.649Z,101478.09
2022-12-04T09:04:49.210Z,101481.47
2022-12-04T09:07:21.821Z,101473.00
2022-12-04T09:09:54.371Z,101473.50
2022-12-04T09:12:26.977Z,101487.81
2022-12-04T09:14:59.548Z,101487.66
2022-12-04T09:17:32.200Z,101479.38
2022-12-04T09:20:08.048Z,101485.28
2022-12-04T09:23:02.860Z,101493.53
2022-12-04T09:25:37.911Z,101496.75
2022-12-04T09:28:10.426Z,101498.84
2022-12-04T09:30:43.074Z,101494.09
2022-12-04T09:33:15.559Z,101494.47
2022-12-04T09:35:48.023Z,101497.56
2022-12-04T09:38:21.296Z,101499.53
2022-12-04T09:41:10.793Z,101501.75
2022-12-04T09:44:04.159Z,101495.31
2022-12-04T09:46:51.444Z,101480.97
2022-12-04T09:49:34.647Z,101486.16
2022-12-04T09:52:44.429Z,101493.38
2022-12-04T09:55:32.824Z,101501.22
2022-12-04T09:58:13.786Z,101504.56
2022-12-04T10:00:50.766Z,101510.31
2022-12-04T10:03:30.270Z,101509.44
2022-12-04T10:06:14.302Z,101516.47
2022-12-04T10:09:03.742Z,101497.03
2022-12-04T10:11:42.061Z,101504.69
2022-12-04T10:14:26.697Z,101499.34
2022-12-04T10:17:32.390Z,101505.88
2022-12-04T10:21:17.240Z,101494.63
2022-12-04T10:24:10.564Z,101489.91
2022-12-04T10:26:48.559Z,101493.31
2022-12-04T10:29:29.504Z,101493.22
2022-12-04T10:32:42.669Z,101492.41
2022-12-04T10:35:32.364Z,101494.97
2022-12-04T10:38:33.344Z,101495.94
2022-12-04T10:41:28.985Z,101504.88
2022-12-04T10:44:01.658Z,101505.91
2022-12-04T10:46:35.691Z,101505.50
2022-12-04T10:49:20.741Z,101500.28
2022-12-04T10:51:54.650Z,101499.66
2022-12-04T10:54:50.767Z,101494.34
2022-12-04T10:57:36.074Z,101488.13
2022-12-04T11:00:33.737Z,101493.84
2022-12-04T11:03:24.795Z,101476.25
2022-12-04T11:06:05.220Z,101475.63
2022-12-04T11:08:49.988Z,101468.41
2022-12-04T11:11:35.173Z,101465.91
2022-12-04T11:14:17.606Z,101478.63
2022-12-04T11:17:05.632Z,101477.38
2022-12-04T11:19:38.208Z,101454.81
2022-12-04T11:22:19.900Z,101459.44
2022-12-04T11:24:58.847Z,101455.38
2022-12-04T11:27:36.531Z,101452.91
2022-12-04T11:30:21.750Z,101458.56
2022-12-04T11:32:55.033Z,101451.28
2022-12-04T11:35:30.499Z,101456.50
2022-12-04T11:38:17.594Z,101447.94
2022-12-04T11:40:57.480Z,101454.59
2022-12-04T11:43:33.555Z,101454.03
2022-12-04T11:46:06.895Z,101454.84
2022-12-04T11:48:46.049Z,101455.91
2022-12-04T11:51:50.681Z,101455.25
2022-12-04T11:54:29.102Z,101448.38
2022-12-04T11:57:26.784Z,101449.53
2022-12-04T12:00:23.793Z,101453.09
2022-12-04T12:03:37.666Z,101448.69
2022-12-04T12:06:23.876Z,101440.97
2022-12-04T12:10:05.807Z,101442.56
2022-12-04T12:13:59.314Z,101426.75
2022-12-04T12:17:02.632Z,101434.88
2022-12-04T12:19:58.351Z,101423.69
2022-12-04T12:22:58.327Z,101429.69
2022-12-04T12:25:54.132Z,101424.34
2022-12-04T12:28:36.597Z,101418.88
2022-12-04T12:31:54.498Z,101419.66
2022-12-04T12:34:43.202Z,101412.34
2022-12-04T12:37:29.860Z,101421.41
2022-12-04T12:40:22.972Z,101400.69
2022-12-04T12:43:02.771Z,101404.41
2022-12-04T12:45:40.343Z,101400.44
2022-12-04T12:48:29.952Z,101408.69
2022-12-04T12:51:29.981Z,101410.22
2022-12-04T12:54:39.178Z,101402.47
2022-12-04T12:57:34.717Z,101392.16
2022-12-04T13:00:17.224Z,101409.59
2022-12-04T13:03:02.912Z,101397.47
2022-12-04T13:05:48.758Z,101400.78
2022-12-04T13:09:05.798Z,101396.72
2022-12-04T13:11:40.322Z,101396.31
2022-12-04T13:14:14.422Z,101396.72
2022-12-04T13:16:54.029Z,101409.47
2022-12-04T13:19:35.568Z,101403.81
2022-12-04T13:22:21.992Z,101400.09
2022-12-04T13:25:07.056Z,101413.66
2022-12-04T13:28:10.952Z,101405.16
2022-12-04T13:30:54.041Z,101407.00
2022-12-04T13:34:07.810Z,101404.84
2022-12-04T13:37:12.484Z,101397.00
2022-12-04T13:40:38.565Z,101388.66
2022-12-04T13:43:27.616Z,101379.78
2022-12-04T13:46:06.266Z,101389.34
2022-12-04T13:48:42.998Z,101393.03
2022-12-04T13:51:39.807Z,101396.22
2022-12-04T13:54:12.272Z,101400.69
2022-12-04T13:56:50.033Z,101405.94
2022-12-04T13:59:28.614Z,101403.56
2022-12-04T14:02:20.866Z,101394.78
2022-12-04T14:05:04.602Z,101398.44
2022-12-04T14:07:41.880Z,101391.13
2022-12-04T14:10:14.343Z,101391.66
2022-12-04T14:13:01.945Z,101386.34
2022-12-04T14:15:38.026Z,101389.72
2022-12-04T14:18:13.940Z,101386.22
2022-12-04T14:21:01.064Z,101383.91
2022-12-04T14:23:38.608Z,101390.00
2022-12-04T14:26:37.380Z,101390.00
2022-12-04T14:29:47.451Z,101384.28
2022-12-04T14:32:30.714Z,101388.03
2022-12-04T14:35:04.059Z,101387.13
2022-12-04T14:37:44.714Z,101385.03
2022-12-04T14:40:28.418Z,101378.25
2022-12-04T14:43:00.924Z,101387.06
2022-12-04T14:45:52.653Z,101387.72
2022-12-04T14:49:00.377Z,101383.59
2022-12-04T14:51:41.638Z,101383.19
2022-12-04T14:54:55.103Z,101386.06
2022-12-04T14:58:30.643Z,101382.97
2022-12-04T15:01:40.695Z,101385.03
2022-12-04T15:04:23.318Z,101389.81
2022-12-04T15:07:00.419Z,101407.91
2022-12-04T15:09:51.925Z,101407.81
2022-12-04T15:12:34.775Z,101403.81
2022-12-04T15:15:25.011Z,101407.50
2022-12-04T15:18:24.219Z,101410.25
2022-12-04T15:21:00.767Z,101404.56
2022-12-04T15:23:41.642Z,101418.00
2022-12-04T15:26:20.947Z,101411.72
2022-12-04T15:29:01.280Z,101403.00
2022-12-04T15:31:59.501Z,101397.09
2022-12-04T15:34:46.126Z,101400.06
2022-12-04T15:37:30.115Z,101402.97
2022-12-04T17:15:58.851Z,101435.41
2022-12-04T17:18:31.359Z,101424.91
2022-12-04T17:21:10.063Z,101424.81
2022-12-04T17:23:43.100Z,101441.41
2022-12-04T17:26:15.737Z,101434.69
2022-12-04T17:28:51.806Z,101436.03
2022-12-04T17:31:26.699Z,101445.09
2022-12-04T17:33:59.272Z,101447.63
2022-12-04T17:36:31.779Z,101441.25
2022-12-04T17:39:04.362Z,101439.16
2022-12-04T17:41:37.167Z,101439.47
2022-12-04T17:44:10.719Z,101455.31
2022-12-04T17:46:43.276Z,101460.09
2022-12-04T17:49:15.863Z,101467.38
2022-12-04T17:51:48.373Z,101459.53
2022-12-04T17:54:20.913Z,101464.00
2022-12-04T17:56:57.745Z,101459.63
2022-12-04T17:59:30.717Z,101462.19
2022-12-04T18:02:03.233Z,101462.09
2022-12-04T18:04:35.713Z,101466.53
2022-12-04T18:07:08.914Z,101461.16
2022-12-04T18:09:41.447Z,101461.09
2022-12-04T18:12:14.621Z,101455.91
2022-12-04T18:14:47.109Z,101469.25
2022-12-04T18:17:20.843Z,101458.44
2022-12-04T18:19:53.444Z,101462.16
2022-12-04T18:22:26.027Z,101454.19
2022-12-04T18:24:58.550Z,101454.34
2022-12-04T18:27:31.249Z,101448.84
2022-12-04T18:30:04.176Z,101447.00
2022-12-04T18:32:36.683Z,101457.00
2022-12-04T18:35:09.410Z,101448.38
2022-12-04T18:37:41.918Z,101448.88
2022-12-04T18:40:14.692Z,101444.25
2022-12-04T18:42:47.220Z,101445.78
2022-12-04T18:45:22.106Z,101448.31
2022-12-04T18:47:54.612Z,101442.16
2022-12-04T18:50:29.466Z,101442.16
2022-12-04T18:53:01.977Z,101450.03
2022-12-04T18:55:36.688Z,101447.94
2022-12-04T18:58:09.193Z,101448.38
2022-12-04T19:00:42.056Z,101439.00
2022-12-04T19:03:14.728Z,101437.34
2022-12-04T19:05:50.775Z,101447.53
2022-12-04T19:08:24.672Z,101440.81
2022-12-04T19:11:11.904Z,101451.25
2022-12-04T19:13:44.412Z,101447.47
2022-12-04T19:16:18.609Z,101448.25
2022-12-04T19:18:51.569Z,101454.66
2022-12-04T19:21:24.920Z,101452.63
2022-12-04T19:24:00.124Z,101460.81
2022-12-04T19:26:35.202Z,101454.38
2022-12-04T19:29:08.005Z,101458.78
2022-12-04T19:31:41.029Z,101456.09
2022-12-04T19:34:13.651Z,101459.25
2022-12-04T19:36:47.220Z,101461.06
2022-12-04T19:39:19.825Z,101458.31
2022-12-04T19:41:52.809Z,101454.72
2022-12-04T19:44:47.741Z,101462.84
2022-12-04T19:47:18.990Z,101457.56
2022-12-04T19:49:51.551Z,101458.53
2022-12-04T19:52:24.116Z,101468.06
2022-12-04T19:54:56.689Z,101457.56
2022-12-04T19:57:29.249Z,101458.38
2022-12-04T20:00:02.470Z,101466.91
2022-12-04T20:02:36.569Z,101476.69
2022-12-04T20:05:09.311Z,101464.63
2022-12-04T20:07:41.940Z,101461.38
2022-12-04T20:10:14.515Z,101465.00
2022-12-04T20:12:47.083Z,101461.91
2022-12-04T20:15:19.634Z,101450.69
2022-12-04T20:17:53.281Z,101455.94
2022-12-04T20:20:25.801Z,101456.63
2022-12-04T20:22:58.293Z,101462.09
2022-12-04T20:25:30.769Z,101462.53
2022-12-04T20:28:03.403Z,101460.47
2022-12-04T20:30:36.006Z,101457.69
2022-12-04T20:33:09.719Z,101468.22
2022-12-04T20:35:42.296Z,101457.78
2022-12-04T20:38:15.064Z,101460.16
2022-12-04T20:40:48.065Z,101458.03
2022-12-04T20:43:20.687Z,101466.06
2022-12-04T20:45:53.292Z,101467.47
2022-12-04T20:48:28.757Z,101463.09
2022-12-04T20:51:01.593Z,101467.78
2022-12-04T20:53:34.140Z,101461.56
2022-12-04T20:56:07.542Z,101462.34
2022-12-04T20:58:41.129Z,101468.69
2022-12-04T21:01:17.526Z,101468.22
2022-12-04T21:03:51.304Z,101464.88
2022-12-04T21:06:34.891Z,101465.75
2022-12-04T21:09:15.302Z,101468.88
2022-12-04T21:11:51.856Z,101471.78
2022-12-04T21:14:49.801Z,101474.16
2022-12-04T21:17:23.524Z,101470.41
2022-12-04T21:19:56.211Z,101481.94
2022-12-04T21:22:28.944Z,101475.31
2022-12-04T21:25:03.122Z,101472.88
2022-12-04T21:27:35.876Z,101474.63
2022-12-04T21:30:10.488Z,101476.78
2022-12-04T21:32:43.010Z,101470.16
2022-12-04T21:35:15.506Z,101472.72
2022-12-04T21:37:48.112Z,101460.56
2022-12-04T21:40:20.629Z,101467.56
2022-12-04T21:42:55.790Z,101470.00
2022-12-04T21:45:28.536Z,101470.78
2022-12-04T21:48:01.063Z,101463.75
2022-12-04T21:50:34.586Z,101468.78
2022-12-04T21:53:07.150Z,101469.78
2022-12-04T21:55:45.631Z,101461.03
2022-12-04T21:58:20.180Z,101465.84
2022-12-04T22:00:52.993Z,101461.84
2022-12-04T22:03:25.672Z,101464.63
2022-12-04T22:06:00.506Z,101464.31
2022-12-04T22:08:37.181Z,101465.09
2022-12-04T22:11:12.233Z,101466.03
2022-12-04T22:13:44.991Z,101465.47
2022-12-04T22:16:19.165Z,101467.88
2022-12-04T22:18:57.873Z,101467.09
2022-12-04T22:21:30.615Z,101468.19
2022-12-04T22:24:05.000Z,101474.75
2022-12-04T22:26:38.623Z,101479.03
2022-12-04T22:29:48.048Z,101475.38
2022-12-04T22:32:03.875Z,101471.00
2022-12-04T22:34:36.480Z,101471.00
2022-12-04T22:37:09.004Z,101475.63
2022-12-04T22:39:41.518Z,101470.69
2022-12-04T22:42:13.999Z,101474.63
2022-12-04T22:44:46.662Z,101477.31
2022-12-04T22:47:19.132Z,101481.94
2022-12-04T22:49:51.724Z,101474.22
2022-12-04T22:52:24.317Z,101473.63
2022-12-04T22:54:56.876Z,101475.25
2022-12-04T22:57:29.439Z,101475.63
2022-12-04T23:00:02.114Z,101474.16
2022-12-04T23:02:34.851Z,101474.47
2022-12-04T23:05:07.546Z,101477.31
2022-12-04T23:07:40.120Z,101477.53
2022-12-04T23:10:12.668Z,101493.25
2022-12-04T23:12:45.130Z,101487.00
2022-12-04T23:15:18.083Z,101485.22
2022-12-04T23:17:50.602Z,101476.41
2022-12-04T23:20:23.079Z,101481.84
2022-12-04T23:22:56.119Z,101481.56
2022-12-04T23:25:28.577Z,101478.31
2022-12-04T23:28:01.158Z,101476.69
2022-12-04T23:30:36.538Z,101477.63
2022-12-04T23:33:09.329Z,101479.56
2022-12-04T23:35:41.841Z,101473.56
2022-12-04T23:38:14.390Z,101471.41
2022-12-04T23:40:47.935Z,101464.91
2022-12-04T23:43:20.519Z,101464.78
2022-12-04T23:45:52.999Z,101455.28
2022-12-04T23:48:25.612Z,101475.91
2022-12-04T23:50:58.141Z,101467.22
2022-12-04T23:53:30.655Z,101476.22
2022-12-04T23:56:10.582Z,101471.72
2022-12-04T23:58:46.557Z,101464.69
